Time;durP1;ratioP1;P1;durP2;ratioP2;P2;SDS_P1;SDS_P2;PMS_P1;PMS_P2;Temp;Humidity;BMP_temperature;BMP_pressure;BME280_temperature;BME280_humidity;BME280_pressure;Samples;Min_cycle;Max_cycle;Signal;HPM_P1;HPM_P2
2022/11/26 00:00:21;;;;;;;0.00;0.00;;;6.10;99.90;;;;;;5051753;28;20173;-69
2022/11/26 00:02:47;;;;;;;0.00;0.00;;;6.00;99.90;;;;;;5051665;28;20192;-68
2022/11/26 00:05:14;;;;;;;0.35;0.35;;;6.00;99.90;;;;;;5037008;28;20644;-68
2022/11/26 00:07:43;;;;;;;0.00;0.00;;;5.90;99.90;;;;;;5051604;28;20205;-68
2022/11/26 00:10:21;;;;;;;0.00;0.00;;;5.90;99.90;;;;;;5051467;28;20217;-68
2022/11/26 00:12:47;;;;;;;0.00;0.00;;;5.80;99.90;;;;;;5051592;28;20217;-68
2022/11/26 00:15:28;;;;;;;0.20;0.20;;;5.80;99.90;;;;;;5051705;28;20188;-67
2022/11/26 00:17:55;;;;;;;0.15;0.15;;;5.80;99.90;;;;;;5050299;28;20251;-68
2022/11/26 00:20:28;;;;;;;0.00;0.00;;;5.80;99.90;;;;;;5051579;28;20181;-68
2022/11/26 00:22:57;;;;;;;0.08;0.08;;;5.70;99.90;;;;;;5050085;28;20250;-67
2022/11/26 00:25:26;;;;;;;0.20;0.20;;;5.70;99.90;;;;;;5051589;28;20178;-68
2022/11/26 00:27:56;;;;;;;0.00;0.00;;;5.70;99.90;;;;;;5049947;28;20286;-68
2022/11/26 00:30:24;;;;;;;0.00;0.00;;;5.70;99.90;;;;;;5051647;28;20224;-68
2022/11/26 00:32:50;;;;;;;0.00;0.00;;;5.70;99.90;;;;;;5051339;28;20184;-67
2022/11/26 00:35:16;;;;;;;0.00;0.00;;;5.70;99.90;;;;;;5049769;28;20183;-67
2022/11/26 00:37:46;;;;;;;0.00;0.00;;;5.70;99.90;;;;;;5051177;28;20272;-68
2022/11/26 00:40:27;;;;;;;0.00;0.00;;;5.70;99.90;;;;;;5050131;28;20632;-68
2022/11/26 00:42:53;;;;;;;0.00;0.00;;;5.70;99.90;;;;;;5050951;28;20247;-68
2022/11/26 00:45:28;;;;;;;0.00;0.00;;;5.70;99.90;;;;;;5051230;28;20557;-68
2022/11/26 00:47:59;;;;;;;0.75;0.75;;;5.70;99.90;;;;;;5050888;28;20179;-68
2022/11/26 00:50:26;;;;;;;0.25;0.25;;;5.70;99.90;;;;;;5051323;28;20252;-68
2022/11/26 00:52:55;;;;;;;0.10;0.10;;;5.70;99.90;;;;;;5051027;28;20579;-68
2022/11/26 00:55:28;;;;;;;0.10;0.10;;;5.70;99.90;;;;;;5051114;28;20659;-68
2022/11/26 00:57:54;;;;;;;0.00;0.00;;;5.70;99.90;;;;;;5049580;28;20516;-68
2022/11/26 01:00:23;;;;;;;0.10;0.10;;;5.70;99.90;;;;;;5050055;28;20181;-68
2022/11/26 01:02:48;;;;;;;0.00;0.00;;;5.70;99.90;;;;;;5050754;28;20188;-68
2022/11/26 01:05:15;;;;;;;0.00;0.00;;;5.70;99.90;;;;;;5050393;28;20178;-68
2022/11/26 01:07:41;;;;;;;0.00;0.00;;;5.80;99.90;;;;;;5051291;28;20178;-68
2022/11/26 01:10:19;;;;;;;0.00;0.00;;;5.70;99.90;;;;;;5050694;28;20214;-68
2022/11/26 01:12:45;;;;;;;0.00;0.00;;;5.80;99.90;;;;;;5050309;28;20205;-68
2022/11/26 01:15:12;;;;;;;0.00;0.00;;;5.80;99.90;;;;;;5050847;28;20188;-68
2022/11/26 01:17:37;;;;;;;0.00;0.00;;;5.80;99.90;;;;;;5052504;28;20220;-68
2022/11/26 01:20:09;;;;;;;0.00;0.00;;;5.90;99.90;;;;;;5054792;28;20220;-68
2022/11/26 01:22:34;;;;;;;0.00;0.00;;;5.90;99.90;;;;;;5054570;28;20204;-68
2022/11/26 01:25:00;;;;;;;0.22;0.22;;;5.90;99.90;;;;;;5053152;28;20648;-68
2022/11/26 01:27:26;;;;;;;0.00;0.00;;;5.90;99.90;;;;;;5054532;28;20185;-68
2022/11/26 01:29:51;;;;;;;0.00;0.00;;;5.90;99.90;;;;;;5053218;28;20201;-68
2022/11/26 01:32:17;;;;;;;0.25;0.13;;;6.00;99.90;;;;;;5054252;28;20181;-67
2022/11/26 01:34:42;;;;;;;0.00;0.00;;;6.00;99.90;;;;;;5054654;28;20177;-68
2022/11/26 01:37:13;;;;;;;0.15;0.15;;;6.00;99.90;;;;;;5052916;28;20200;-68
2022/11/26 01:39:39;;;;;;;0.32;0.32;;;6.00;99.90;;;;;;5046029;28;20188;-68
2022/11/26 01:42:25;;;;;;;0.00;0.00;;;6.00;99.90;;;;;;5053344;28;20569;-68
2022/11/26 01:44:51;;;;;;;0.75;0.75;;;6.00;99.90;;;;;;5053968;28;20573;-68
2022/11/26 01:47:20;;;;;;;0.00;0.00;;;6.00;99.90;;;;;;5053981;28;20184;-68
2022/11/26 01:50:23;;;;;;;0.17;0.17;;;6.10;99.90;;;;;;5053872;28;20696;-68
2022/11/26 01:52:49;;;;;;;0.00;0.00;;;6.10;99.90;;;;;;5054186;28;20538;-68
2022/11/26 01:55:17;;;;;;;0.00;0.00;;;6.10;99.90;;;;;;5053402;28;20177;-68
2022/11/26 01:57:43;;;;;;;0.00;0.00;;;6.10;99.90;;;;;;5051663;28;20182;-68
2022/11/26 02:00:10;;;;;;;0.30;0.30;;;6.10;99.90;;;;;;5053796;28;20185;-68
2022/11/26 02:02:36;;;;;;;0.00;0.00;;;6.10;99.90;;;;;;5054031;28;20181;-68
2022/11/26 02:05:07;;;;;;;0.05;0.05;;;6.20;99.90;;;;;;5052395;28;20185;-68
2022/11/26 02:07:34;;;;;;;0.00;0.00;;;6.20;99.90;;;;;;5053529;28;20448;-68
2022/11/26 02:10:00;;;;;;;0.00;0.00;;;6.20;99.90;;;;;;5053550;28;20209;-68
2022/11/26 02:12:26;;;;;;;0.00;0.00;;;6.20;99.90;;;;;;5053597;28;20181;-68
2022/11/26 02:14:51;;;;;;;0.00;0.00;;;6.20;99.90;;;;;;5053832;28;20251;-68
2022/11/26 02:17:21;;;;;;;0.00;0.00;;;6.20;99.90;;;;;;5053518;28;20243;-68
2022/11/26 02:20:31;;;;;;;0.00;0.00;;;6.20;99.90;;;;;;5040610;28;20219;-69
2022/11/26 02:23:21;;;;;;;0.00;0.00;;;6.20;99.90;;;;;;5052925;28;20228;-67
2022/11/26 02:25:50;;;;;;;0.10;0.10;;;6.20;99.90;;;;;;5037747;28;20178;-67
2022/11/26 02:28:44;;;;;;;0.35;0.35;;;6.20;99.90;;;;;;5053597;28;20667;-68
2022/11/26 02:31:19;;;;;;;0.00;0.00;;;6.20;99.90;;;;;;5050965;28;20266;-67
2022/11/26 02:34:25;;;;;;;0.00;0.00;;;6.20;99.90;;;;;;5043417;28;20173;-67
2022/11/26 02:36:57;;;;;;;0.00;0.00;;;6.20;99.90;;;;;;5044427;28;20558;-67
2022/11/26 02:39:25;;;;;;;0.00;0.00;;;6.30;99.90;;;;;;5053174;28;20664;-67
2022/11/26 02:41:54;;;;;;;0.00;0.00;;;6.30;99.90;;;;;;5051127;28;20184;-67
2022/11/26 02:44:23;;;;;;;0.00;0.00;;;6.30;99.90;;;;;;5052985;28;20656;-67
2022/11/26 02:46:55;;;;;;;0.00;0.00;;;6.40;99.90;;;;;;5051849;28;20213;-68
2022/11/26 02:49:21;;;;;;;0.60;0.38;;;6.40;99.90;;;;;;5047983;28;20252;-68
2022/11/26 02:51:52;;;;;;;0.00;0.00;;;6.40;99.90;;;;;;5064026;28;20273;-68
2022/11/26 02:54:20;;;;;;;0.00;0.00;;;6.40;99.90;;;;;;5041378;28;20188;-68
2022/11/26 02:56:48;;;;;;;0.10;0.10;;;6.50;99.90;;;;;;5046341;28;20675;-68
2022/11/26 02:59:13;;;;;;;0.00;0.00;;;6.50;99.90;;;;;;5052404;28;20930;-68
2022/11/26 03:01:51;;;;;;;0.00;0.00;;;6.50;99.90;;;;;;5052399;28;20272;-68
2022/11/26 03:04:21;;;;;;;0.00;0.00;;;6.60;99.90;;;;;;5052583;28;20693;-68
2022/11/26 03:06:47;;;;;;;0.00;0.00;;;6.60;99.90;;;;;;5052025;28;20178;-68
2022/11/26 03:09:16;;;;;;;0.00;0.00;;;6.70;99.90;;;;;;5051263;28;20299;-68
2022/11/26 03:11:42;;;;;;;0.10;0.10;;;6.70;99.90;;;;;;5052502;28;20189;-67
2022/11/26 03:14:08;;;;;;;0.00;0.00;;;6.70;99.90;;;;;;5050741;28;20312;-68
2022/11/26 03:16:33;;;;;;;0.00;0.00;;;6.70;99.90;;;;;;5052176;28;20192;-68
2022/11/26 03:18:59;;;;;;;0.05;0.05;;;6.70;99.90;;;;;;5051023;28;20178;-67
2022/11/26 03:21:24;;;;;;;0.10;0.10;;;6.70;99.90;;;;;;5051952;28;20213;-67
2022/11/26 03:23:50;;;;;;;0.00;0.00;;;6.70;99.90;;;;;;5050611;28;20247;-67
2022/11/26 03:26:15;;;;;;;0.00;0.00;;;6.80;99.90;;;;;;5051238;28;20213;-67
2022/11/26 03:28:41;;;;;;;0.73;0.52;;;6.80;99.90;;;;;;5051950;28;20192;-67
2022/11/26 03:31:07;;;;;;;0.00;0.00;;;6.80;99.90;;;;;;5051797;28;20213;-68
2022/11/26 03:33:32;;;;;;;0.00;0.00;;;6.80;99.90;;;;;;5052379;28;20188;-68
2022/11/26 03:35:58;;;;;;;0.00;0.00;;;6.80;99.90;;;;;;5050516;28;20239;-67
2022/11/26 03:38:23;;;;;;;0.00;0.00;;;6.80;99.90;;;;;;5051441;28;20170;-67
2022/11/26 03:41:00;;;;;;;0.00;0.00;;;6.90;99.90;;;;;;5051323;28;20181;-67
2022/11/26 03:43:26;;;;;;;0.10;0.10;;;6.90;99.90;;;;;;5051525;28;20193;-68
2022/11/26 03:45:52;;;;;;;0.00;0.00;;;6.90;99.90;;;;;;5050053;28;20177;-67
2022/11/26 03:48:17;;;;;;;0.00;0.00;;;6.90;99.90;;;;;;5052113;28;20181;-67
2022/11/26 03:50:43;;;;;;;0.77;0.75;;;6.90;99.90;;;;;;5051791;28;20220;-68
2022/11/26 03:53:09;;;;;;;0.93;0.90;;;6.90;99.90;;;;;;5049902;28;20629;-67
2022/11/26 03:55:34;;;;;;;0.00;0.00;;;6.90;99.90;;;;;;5049635;28;20227;-67
2022/11/26 03:58:00;;;;;;;0.00;0.00;;;6.90;99.90;;;;;;5050395;28;20231;-67
2022/11/26 04:00:25;;;;;;;0.00;0.00;;;6.90;99.90;;;;;;5051313;28;20261;-68
2022/11/26 04:02:51;;;;;;;0.05;0.05;;;6.90;99.90;;;;;;5051443;28;20215;-68
2022/11/26 04:05:16;;;;;;;0.00;0.00;;;7.00;99.90;;;;;;5049888;28;20609;-66
2022/11/26 04:07:42;;;;;;;0.00;0.00;;;6.90;99.90;;;;;;5051246;28;20178;-68
2022/11/26 04:10:08;;;;;;;0.00;0.00;;;6.90;99.90;;;;;;5049838;28;20240;-68
2022/11/26 04:12:34;;;;;;;0.00;0.00;;;6.90;99.90;;;;;;5051011;28;20170;-68
2022/11/26 04:14:59;;;;;;;0.98;0.90;;;6.90;99.90;;;;;;5051444;28;20182;-68
2022/11/26 04:17:25;;;;;;;0.00;0.00;;;6.90;99.90;;;;;;5051429;28;20188;-68
2022/11/26 04:19:51;;;;;;;0.00;0.00;;;7.00;99.90;;;;;;5050994;28;20181;-68
2022/11/26 04:22:16;;;;;;;0.00;0.00;;;7.00;99.90;;;;;;5049625;28;20181;-67
2022/11/26 04:24:42;;;;;;;0.00;0.00;;;7.00;99.90;;;;;;5050024;28;20186;-67
2022/11/26 04:27:07;;;;;;;0.10;0.10;;;7.00;99.90;;;;;;5051322;28;20203;-67
2022/11/26 04:29:35;;;;;;;0.20;0.20;;;7.00;99.90;;;;;;5050835;28;20572;-68
2022/11/26 04:32:00;;;;;;;0.20;0.20;;;7.00;99.90;;;;;;5051610;28;20676;-68
2022/11/26 04:34:26;;;;;;;0.00;0.00;;;7.00;99.90;;;;;;5049894;28;20213;-68
2022/11/26 04:36:52;;;;;;;0.00;0.00;;;7.00;99.90;;;;;;5051027;28;20264;-68
2022/11/26 04:39:17;;;;;;;0.00;0.00;;;7.00;99.90;;;;;;5051380;28;20182;-67
2022/11/26 04:41:43;;;;;;;0.00;0.00;;;6.90;99.90;;;;;;5049734;28;20189;-68
2022/11/26 04:44:09;;;;;;;1.38;1.30;;;6.90;99.90;;;;;;5051438;28;20193;-68
2022/11/26 04:46:34;;;;;;;0.00;0.00;;;6.90;99.90;;;;;;5049637;28;20186;-67
2022/11/26 04:49:00;;;;;;;0.00;0.00;;;6.90;99.90;;;;;;5051250;28;20635;-67
2022/11/26 04:51:25;;;;;;;0.00;0.00;;;6.80;99.90;;;;;;5052005;28;20287;-67
2022/11/26 04:53:51;;;;;;;0.00;0.00;;;6.80;99.90;;;;;;5054488;28;20542;-67
2022/11/26 04:56:16;;;;;;;0.00;0.00;;;6.80;99.90;;;;;;5054714;28;20182;-67
2022/11/26 04:58:42;;;;;;;0.00;0.00;;;6.70;99.90;;;;;;5053237;28;20178;-67
2022/11/26 05:01:07;;;;;;;0.00;0.00;;;6.60;99.90;;;;;;5053951;28;20182;-67
2022/11/26 05:03:35;;;;;;;0.00;0.00;;;6.60;99.90;;;;;;5054552;28;20239;-67
2022/11/26 05:06:01;;;;;;;0.00;0.00;;;6.60;99.90;;;;;;5054885;28;20604;-67
2022/11/26 05:08:26;;;;;;;0.00;0.00;;;6.50;99.90;;;;;;5054524;28;20221;-67
2022/11/26 05:10:57;;;;;;;0.20;0.20;;;6.40;99.90;;;;;;5054579;28;20806;-67
2022/11/26 05:13:23;;;;;;;0.00;0.00;;;6.40;99.90;;;;;;5054777;28;20250;-67
2022/11/26 05:15:49;;;;;;;0.03;0.03;;;6.40;99.90;;;;;;5053273;28;20293;-67
2022/11/26 05:18:15;;;;;;;0.20;0.20;;;6.40;99.90;;;;;;5054663;28;20704;-67
2022/11/26 05:20:40;;;;;;;0.00;0.00;;;6.30;99.90;;;;;;5054641;28;20243;-67
2022/11/26 05:23:06;;;;;;;0.00;0.00;;;6.20;99.90;;;;;;5053421;28;20242;-68
2022/11/26 05:25:31;;;;;;;0.00;0.00;;;6.20;99.90;;;;;;5054760;28;20213;-67
2022/11/26 05:27:57;;;;;;;0.00;0.00;;;6.10;99.90;;;;;;5053789;28;20181;-67
2022/11/26 05:30:22;;;;;;;0.25;0.25;;;6.10;99.90;;;;;;5053016;28;20209;-67
2022/11/26 05:32:48;;;;;;;0.28;0.28;;;6.00;99.90;;;;;;5053159;28;20177;-67
2022/11/26 05:35:13;;;;;;;0.00;0.00;;;6.00;99.90;;;;;;5052810;28;20196;-67
2022/11/26 05:37:39;;;;;;;0.00;0.00;;;5.90;99.90;;;;;;5054012;28;20222;-67
2022/11/26 05:40:06;;;;;;;0.00;0.00;;;5.90;99.90;;;;;;5054418;28;20173;-68
2022/11/26 05:42:31;;;;;;;0.10;0.10;;;5.80;99.90;;;;;;5052098;28;20185;-68
2022/11/26 05:44:57;;;;;;;0.35;0.35;;;5.70;99.90;;;;;;5053802;28;20184;-67
2022/11/26 05:47:22;;;;;;;0.10;0.10;;;5.70;99.90;;;;;;5053198;28;20177;-67
2022/11/26 05:49:48;;;;;;;0.43;0.43;;;5.70;99.90;;;;;;5053277;28;20285;-68
2022/11/26 05:52:13;;;;;;;0.00;0.00;;;5.60;99.90;;;;;;5053940;28;20177;-67
2022/11/26 05:54:39;;;;;;;0.00;0.00;;;5.60;99.90;;;;;;5052730;28;20262;-67
2022/11/26 05:57:04;;;;;;;0.10;0.10;;;5.50;99.90;;;;;;5053007;28;20243;-67
2022/11/26 05:59:30;;;;;;;0.00;0.00;;;5.50;99.90;;;;;;5055116;28;20606;-68
2022/11/26 06:01:56;;;;;;;0.25;0.25;;;5.40;99.90;;;;;;5052590;28;20177;-67
2022/11/26 06:04:22;;;;;;;0.05;0.05;;;5.40;99.90;;;;;;5041162;28;20273;-67
2022/11/26 06:06:47;;;;;;;0.13;0.13;;;5.30;99.90;;;;;;5051117;28;20231;-67
2022/11/26 06:09:13;;;;;;;0.10;0.10;;;5.30;99.90;;;;;;5052467;28;20189;-68
2022/11/26 06:11:39;;;;;;;0.65;0.65;;;5.30;99.90;;;;;;5053419;28;20223;-67
2022/11/26 06:14:04;;;;;;;0.52;0.47;;;5.20;99.90;;;;;;5053271;28;20221;-67
2022/11/26 06:16:30;;;;;;;0.43;0.17;;;5.20;99.90;;;;;;5052320;28;20193;-67
2022/11/26 06:18:56;;;;;;;0.00;0.00;;;5.10;99.90;;;;;;5052111;28;20255;-67
2022/11/26 06:21:21;;;;;;;0.10;0.10;;;5.10;99.90;;;;;;5053323;28;20174;-67
2022/11/26 06:23:47;;;;;;;0.10;0.10;;;5.10;99.90;;;;;;5053709;28;20200;-67
2022/11/26 06:26:12;;;;;;;0.00;0.00;;;5.00;99.90;;;;;;5053246;28;20539;-67
2022/11/26 06:28:39;;;;;;;0.38;0.10;;;5.00;99.90;;;;;;5053538;28;20178;-67
2022/11/26 06:31:04;;;;;;;0.00;0.00;;;4.90;99.90;;;;;;5052948;28;20305;-67
2022/11/26 06:33:30;;;;;;;0.00;0.00;;;4.90;99.90;;;;;;5053132;28;20257;-67
2022/11/26 06:36:00;;;;;;;0.00;0.00;;;4.80;99.90;;;;;;5053254;28;20182;-67
2022/11/26 06:38:27;;;;;;;0.00;0.00;;;4.80;99.90;;;;;;5051523;28;20188;-68
2022/11/26 06:40:59;;;;;;;0.10;0.10;;;4.70;99.90;;;;;;5053084;28;20217;-71
2022/11/26 06:43:26;;;;;;;0.03;0.03;;;4.70;99.90;;;;;;5048971;28;20214;-69
2022/11/26 06:45:52;;;;;;;0.00;0.00;;;4.60;99.90;;;;;;5053002;28;20265;-69
2022/11/26 06:48:20;;;;;;;0.00;0.00;;;4.60;99.90;;;;;;5053154;28;20549;-70
2022/11/26 06:50:46;;;;;;;0.00;0.00;;;4.60;99.90;;;;;;5052557;28;20668;-69
2022/11/26 06:53:11;;;;;;;0.00;0.00;;;4.50;99.90;;;;;;5052340;28;20192;-68
2022/11/26 06:55:37;;;;;;;0.17;0.17;;;4.50;99.90;;;;;;5052345;28;20182;-65
2022/11/26 06:58:03;;;;;;;0.00;0.00;;;4.50;99.90;;;;;;5047411;28;20248;-67
2022/11/26 07:00:28;;;;;;;0.10;0.10;;;4.40;99.90;;;;;;5053032;28;20181;-69
2022/11/26 07:02:54;;;;;;;0.00;0.00;;;4.40;99.90;;;;;;5052865;28;20178;-69
2022/11/26 07:05:19;;;;;;;0.10;0.10;;;4.40;99.90;;;;;;5052391;28;20182;-68
2022/11/26 07:07:45;;;;;;;6.70;0.65;;;4.40;99.90;;;;;;5052578;28;20548;-67
2022/11/26 07:10:10;;;;;;;0.00;0.00;;;4.40;99.90;;;;;;5052122;28;20204;-71
2022/11/26 07:12:36;;;;;;;0.00;0.00;;;4.40;99.90;;;;;;5052630;28;20178;-70
2022/11/26 07:15:01;;;;;;;0.10;0.10;;;4.40;99.90;;;;;;5051296;28;20239;-68
2022/11/26 07:17:27;;;;;;;0.00;0.00;;;4.40;99.90;;;;;;5051817;28;20207;-69
2022/11/26 07:19:53;;;;;;;0.00;0.00;;;4.30;99.90;;;;;;5052439;28;20182;-67
2022/11/26 07:22:18;;;;;;;0.00;0.00;;;4.30;99.90;;;;;;5051654;28;20182;-67
2022/11/26 07:24:44;;;;;;;0.00;0.00;;;4.40;99.90;;;;;;5052753;28;20227;-67
2022/11/26 07:27:09;;;;;;;0.00;0.00;;;4.40;99.90;;;;;;5052202;28;20223;-73
2022/11/26 07:29:35;;;;;;;0.10;0.10;;;4.50;99.90;;;;;;5052621;28;20209;-71
2022/11/26 07:32:00;;;;;;;0.00;0.00;;;4.60;99.90;;;;;;5052392;28;20245;-72
2022/11/26 07:34:26;;;;;;;0.00;0.00;;;4.60;99.90;;;;;;5052376;28;20257;-74
2022/11/26 07:36:51;;;;;;;0.00;0.00;;;4.70;99.90;;;;;;5052530;28;20213;-71
2022/11/26 07:39:17;;;;;;;0.80;0.75;;;4.70;99.90;;;;;;5052432;28;20174;-72
2022/11/26 07:41:42;;;;;;;0.00;0.00;;;4.80;99.90;;;;;;5048871;28;20186;-68
2022/11/26 07:44:13;;;;;;;0.10;0.10;;;4.80;99.90;;;;;;5052371;28;20185;-69
2022/11/26 07:46:39;;;;;;;0.00;0.00;;;4.90;99.90;;;;;;5051339;28;20184;-69
2022/11/26 07:49:04;;;;;;;0.00;0.00;;;4.90;99.90;;;;;;5052154;28;20561;-66
2022/11/26 07:51:31;;;;;;;0.00;0.00;;;5.00;99.90;;;;;;5052288;28;20220;-68
2022/11/26 07:53:58;;;;;;;0.10;0.10;;;5.10;99.90;;;;;;5052037;28;20726;-68
2022/11/26 07:56:25;;;;;;;0.30;0.30;;;5.20;99.90;;;;;;5045177;28;20264;-68
2022/11/26 07:58:51;;;;;;;0.15;0.15;;;5.20;99.90;;;;;;5032371;28;20166;-67
2022/11/26 08:01:19;;;;;;;0.45;0.40;;;5.30;99.90;;;;;;5032227;28;20696;-68
2022/11/26 08:03:47;;;;;;;0.10;0.10;;;5.40;99.90;;;;;;5034967;28;20178;-68
2022/11/26 08:06:18;;;;;;;0.05;0.05;;;5.40;99.90;;;;;;5052133;28;20192;-68
2022/11/26 08:08:45;;;;;;;0.22;0.22;;;5.50;99.90;;;;;;5051951;28;20204;-66
2022/11/26 08:11:11;;;;;;;0.77;0.77;;;5.50;99.90;;;;;;5051987;28;20314;-67
2022/11/26 08:13:37;;;;;;;1.55;1.45;;;5.50;99.90;;;;;;5051444;28;20213;-66
2022/11/26 08:16:03;;;;;;;0.22;0.22;;;5.50;99.90;;;;;;5051911;28;20644;-69
2022/11/26 08:18:28;;;;;;;0.25;0.25;;;5.50;99.90;;;;;;5051711;28;20256;-68
2022/11/26 08:20:57;;;;;;;0.05;0.05;;;5.50;99.90;;;;;;5050119;28;20585;-68
2022/11/26 08:23:24;;;;;;;0.38;0.38;;;5.50;99.90;;;;;;5050970;28;20549;-67
2022/11/26 08:25:50;;;;;;;0.00;0.00;;;5.60;99.90;;;;;;5051477;28;20186;-69
2022/11/26 08:28:15;;;;;;;0.85;0.85;;;5.70;99.90;;;;;;5056057;28;20303;-69
2022/11/26 08:30:41;;;;;;;0.30;0.30;;;5.70;99.90;;;;;;5054507;28;20213;-69
2022/11/26 08:33:06;;;;;;;0.10;0.10;;;5.90;99.90;;;;;;5050542;28;20655;-71
2022/11/26 08:35:34;;;;;;;0.10;0.10;;;6.00;99.90;;;;;;5046984;28;20546;-72
2022/11/26 08:37:59;;;;;;;0.08;0.08;;;6.10;99.90;;;;;;5053927;28;20260;-67
2022/11/26 08:40:25;;;;;;;0.00;0.00;;;6.20;99.90;;;;;;5054946;28;20308;-68
2022/11/26 08:42:50;;;;;;;0.10;0.10;;;6.30;99.90;;;;;;5055136;28;20188;-72
2022/11/26 08:45:16;;;;;;;0.32;0.32;;;6.40;99.90;;;;;;5058164;28;20188;-65
2022/11/26 08:47:41;;;;;;;0.57;0.17;;;6.60;99.90;;;;;;5058336;28;20185;-68
2022/11/26 08:50:08;;;;;;;0.28;0.10;;;6.70;99.90;;;;;;5051188;28;20228;-69
2022/11/26 08:52:33;;;;;;;0.00;0.00;;;6.90;99.90;;;;;;5054913;28;20181;-70
2022/11/26 08:54:59;;;;;;;0.00;0.00;;;7.10;99.90;;;;;;5054910;28;20269;-71
2022/11/26 08:57:24;;;;;;;0.10;0.10;;;7.30;99.90;;;;;;5053026;28;20232;-69
2022/11/26 08:59:50;;;;;;;0.05;0.05;;;7.50;99.90;;;;;;5053402;28;20228;-68
2022/11/26 09:02:16;;;;;;;0.28;0.28;;;7.70;99.90;;;;;;5055257;28;20185;-70
2022/11/26 09:04:42;;;;;;;0.00;0.00;;;7.80;99.90;;;;;;5055127;28;20626;-73
2022/11/26 09:07:07;;;;;;;0.00;0.00;;;8.00;99.90;;;;;;5053250;28;20276;-69
2022/11/26 09:09:33;;;;;;;0.10;0.10;;;8.10;99.90;;;;;;5053339;28;20401;-68
2022/11/26 09:12:01;;;;;;;0.00;0.00;;;8.30;99.90;;;;;;5054363;28;20292;-69
2022/11/26 09:14:29;;;;;;;0.00;0.00;;;8.40;99.90;;;;;;5053268;28;20217;-69
2022/11/26 09:16:56;;;;;;;0.10;0.10;;;8.40;99.90;;;;;;5054199;28;20231;-68
2022/11/26 09:19:23;;;;;;;0.00;0.00;;;8.40;99.90;;;;;;5054950;28;20181;-69
2022/11/26 09:21:49;;;;;;;0.22;0.22;;;8.40;99.90;;;;;;5054517;28;20185;-68
2022/11/26 09:24:16;;;;;;;0.00;0.00;;;8.30;99.90;;;;;;5054853;28;20269;-68
2022/11/26 09:26:41;;;;;;;0.00;0.00;;;8.20;99.90;;;;;;5054694;28;20204;-68
2022/11/26 09:29:10;;;;;;;0.73;0.73;;;8.20;99.90;;;;;;5053321;28;20177;-69
2022/11/26 09:31:35;;;;;;;0.25;0.10;;;8.20;99.90;;;;;;5054634;28;20753;-68
2022/11/26 09:34:01;;;;;;;0.00;0.00;;;8.10;99.90;;;;;;5051251;28;20265;-69
2022/11/26 09:36:27;;;;;;;0.00;0.00;;;8.20;99.90;;;;;;5054505;28;20671;-68
2022/11/26 09:38:57;;;;;;;0.55;0.30;;;8.20;99.90;;;;;;5052977;28;20186;-69
2022/11/26 09:41:46;;;;;;;0.00;0.00;;;8.20;99.90;;;;;;5053190;28;20188;-69
2022/11/26 09:44:32;;;;;;;0.00;0.00;;;8.20;99.90;;;;;;5054218;28;20189;-69
2022/11/26 09:47:09;;;;;;;0.00;0.00;;;8.20;99.90;;;;;;5054446;28;20188;-69
2022/11/26 09:49:41;;;;;;;0.00;0.00;;;8.20;99.90;;;;;;5052995;28;20489;-69
2022/11/26 09:52:09;;;;;;;0.00;0.00;;;8.20;99.90;;;;;;5053997;28;20242;-69
2022/11/26 09:54:37;;;;;;;0.20;0.20;;;8.10;99.90;;;;;;5039926;28;20536;-69
2022/11/26 09:57:46;;;;;;;0.00;0.00;;;8.10;99.90;;;;;;5054207;28;21268;-69
2022/11/26 10:00:25;;;;;;;0.10;0.10;;;8.00;99.90;;;;;;5016808;28;20293;-69
2022/11/26 10:02:52;;;;;;;0.05;0.05;;;8.10;99.90;;;;;;5054157;28;20173;-69
2022/11/26 10:05:20;;;;;;;0.10;0.10;;;8.10;99.90;;;;;;5054113;28;20239;-69
2022/11/26 10:08:15;;;;;;;0.10;0.10;;;8.10;99.90;;;;;;5052433;28;20178;-69
2022/11/26 10:11:07;;;;;;;0.00;0.00;;;8.10;99.90;;;;;;5040157;28;20205;-69
2022/11/26 10:14:05;;;;;;;0.00;0.00;;;8.10;99.90;;;;;;5052794;28;20312;-68
2022/11/26 10:16:50;;;;;;;0.10;0.10;;;8.10;99.90;;;;;;5051960;28;20185;-68
2022/11/26 10:19:15;;;;;;;0.20;0.20;;;8.20;99.90;;;;;;5044465;28;20505;-69
2022/11/26 10:21:45;;;;;;;0.00;0.00;;;8.20;99.90;;;;;;5065459;28;20191;-69
2022/11/26 10:24:30;;;;;;;0.00;0.00;;;8.20;99.90;;;;;;5053551;28;20693;-69
2022/11/26 10:27:00;;;;;;;0.00;0.00;;;8.20;99.90;;;;;;5043704;28;20181;-68
2022/11/26 10:29:33;;;;;;;0.00;0.00;;;8.20;99.90;;;;;;5054486;28;20188;-68
2022/11/26 10:32:08;;;;;;;0.10;0.10;;;8.30;99.90;;;;;;5052281;28;20205;-68
2022/11/26 10:34:39;;;;;;;0.20;0.20;;;8.30;99.90;;;;;;5053353;28;20177;-68
2022/11/26 10:37:05;;;;;;;0.20;0.20;;;8.40;99.90;;;;;;5052170;28;20632;-68
2022/11/26 10:39:31;;;;;;;0.30;0.30;;;8.30;99.90;;;;;;5055424;28;20196;-68
2022/11/26 10:42:03;;;;;;;0.20;0.20;;;8.20;99.90;;;;;;5053251;28;20598;-70
2022/11/26 10:44:39;;;;;;;0.20;0.10;;;8.10;99.90;;;;;;5053033;28;20173;-69
2022/11/26 10:47:20;;;;;;;0.00;0.00;;;8.00;99.90;;;;;;5053028;28;20192;-71
2022/11/26 10:49:47;;;;;;;0.00;0.00;;;8.00;99.90;;;;;;5052746;28;20592;-69
2022/11/26 10:52:18;;;;;;;0.10;0.10;;;8.00;99.90;;;;;;5052892;28;20185;-70
2022/11/26 10:54:44;;;;;;;0.15;0.15;;;8.00;99.90;;;;;;5053336;28;20185;-69
2022/11/26 10:57:10;;;;;;;0.00;0.00;;;8.10;99.90;;;;;;5051891;28;20198;-69
2022/11/26 10:59:47;;;;;;;0.00;0.00;;;8.10;99.90;;;;;;5051540;28;20181;-70
2022/11/26 11:02:16;;;;;;;0.10;0.10;;;8.10;99.90;;;;;;5052176;28;20173;-70
2022/11/26 11:04:44;;;;;;;0.08;0.08;;;8.10;99.90;;;;;;5052400;28;20173;-69
2022/11/26 11:07:35;;;;;;;0.00;0.00;;;8.10;99.90;;;;;;5052132;28;20521;-69
2022/11/26 11:10:07;;;;;;;0.00;0.00;;;8.10;99.90;;;;;;5052252;28;20205;-70
2022/11/26 11:12:33;;;;;;;0.00;0.00;;;8.10;99.90;;;;;;5051642;28;20572;-69
2022/11/26 11:15:22;;;;;;;0.17;0.17;;;8.10;99.90;;;;;;5051623;28;20228;-70
2022/11/26 11:18:13;;;;;;;0.00;0.00;;;8.20;99.90;;;;;;5052216;28;20543;-69
2022/11/26 11:20:40;;;;;;;0.00;0.00;;;8.20;99.90;;;;;;5048868;28;20197;-70
2022/11/26 11:23:18;;;;;;;0.60;0.15;;;8.10;99.90;;;;;;5052495;28;20194;-69
2022/11/26 11:25:56;;;;;;;0.00;0.00;;;8.10;99.90;;;;;;5052174;28;20188;-69
2022/11/26 11:28:25;;;;;;;0.10;0.10;;;8.10;99.90;;;;;;5051472;28;20207;-69
2022/11/26 11:31:07;;;;;;;0.10;0.10;;;8.20;99.90;;;;;;5051941;28;20703;-69
2022/11/26 11:33:33;;;;;;;0.00;0.00;;;8.30;99.90;;;;;;5051814;28;20200;-68
2022/11/26 11:36:05;;;;;;;0.10;0.10;;;8.30;99.90;;;;;;5051777;28;20253;-69
2022/11/26 11:38:49;;;;;;;0.00;0.00;;;8.30;99.90;;;;;;5051503;28;20185;-69
2022/11/26 11:41:38;;;;;;;0.00;0.00;;;8.30;99.90;;;;;;5052036;28;20729;-68
2022/11/26 11:44:23;;;;;;;0.15;0.15;;;8.20;99.90;;;;;;5047628;28;20177;-68
2022/11/26 11:47:00;;;;;;;0.00;0.00;;;8.30;99.90;;;;;;5051232;28;20544;-68
2022/11/26 11:49:41;;;;;;;0.00;0.00;;;8.40;99.90;;;;;;5051526;28;20188;-68
2022/11/26 11:52:28;;;;;;;0.00;0.00;;;8.50;99.90;;;;;;5051474;28;20193;-68
2022/11/26 11:55:25;;;;;;;0.00;0.00;;;8.60;99.90;;;;;;5051707;28;20173;-68
2022/11/26 11:58:17;;;;;;;0.00;0.00;;;8.60;99.90;;;;;;5045137;28;20275;-68
2022/11/26 12:00:52;;;;;;;0.00;0.00;;;8.70;99.90;;;;;;5049863;28;20264;-68
2022/11/26 12:03:38;;;;;;;0.00;0.00;;;8.90;99.90;;;;;;5051765;28;20697;-69
2022/11/26 12:06:18;;;;;;;0.05;0.05;;;9.10;99.90;;;;;;5051613;28;20781;-68
2022/11/26 12:09:04;;;;;;;0.00;0.00;;;9.20;99.90;;;;;;5039319;28;20226;-68
2022/11/26 12:11:35;;;;;;;0.00;0.00;;;9.50;99.90;;;;;;5051546;28;20217;-69
2022/11/26 12:14:16;;;;;;;0.00;0.00;;;9.60;99.90;;;;;;5050983;28;20260;-68
2022/11/26 12:16:46;;;;;;;0.00;0.00;;;9.70;99.90;;;;;;5051100;28;20181;-69
2022/11/26 12:19:28;;;;;;;0.00;0.00;;;9.70;99.90;;;;;;5051261;28;20205;-65
2022/11/26 12:22:05;;;;;;;0.00;0.00;;;9.70;99.90;;;;;;5050414;28;20181;-66
2022/11/26 12:24:43;;;;;;;0.17;0.17;;;9.80;99.90;;;;;;5050751;28;20246;-68
2022/11/26 12:27:31;;;;;;;0.00;0.00;;;9.80;99.90;;;;;;5054586;28;20181;-65
2022/11/26 12:30:03;;;;;;;0.40;0.20;;;9.90;99.90;;;;;;5065945;28;20193;-65
2022/11/26 12:33:02;;;;;;;0.10;0.10;;;9.90;99.90;;;;;;5059416;28;20268;-68
2022/11/26 12:35:33;;;;;;;0.00;0.00;;;10.00;99.90;;;;;;5038908;28;20189;-68
2022/11/26 12:38:05;;;;;;;0.00;0.00;;;10.00;99.90;;;;;;5061906;28;20180;-68
2022/11/26 12:40:57;;;;;;;0.00;0.00;;;10.20;99.90;;;;;;5059308;28;20231;-68
2022/11/26 12:43:31;;;;;;;0.20;0.20;;;10.20;99.90;;;;;;5068347;28;20575;-68
2022/11/26 12:46:09;;;;;;;0.00;0.00;;;10.20;99.90;;;;;;5053990;28;20181;-68
2022/11/26 12:48:49;;;;;;;0.43;0.10;;;10.20;99.90;;;;;;5051539;28;20256;-68
2022/11/26 12:51:18;;;;;;;0.00;0.00;;;10.20;99.90;;;;;;5051560;28;20570;-67
2022/11/26 12:54:20;;;;;;;0.00;0.00;;;10.20;99.90;;;;;;5051231;28;20186;-67
2022/11/26 12:57:02;;;;;;;0.28;0.28;;;10.20;99.90;;;;;;5049754;28;20264;-67
2022/11/26 12:59:42;;;;;;;0.00;0.00;;;10.20;99.90;;;;;;5051502;28;20166;-67
2022/11/26 13:02:17;;;;;;;0.00;0.00;;;10.20;99.90;;;;;;5031900;28;20227;-67
2022/11/26 13:04:42;;;;;;;0.00;0.00;;;10.20;99.90;;;;;;5052976;28;20176;-68
2022/11/26 13:07:33;;;;;;;0.00;0.00;;;10.30;99.90;;;;;;5051389;28;20575;-67
2022/11/26 13:10:04;;;;;;;0.00;0.00;;;10.30;99.90;;;;;;5049876;28;20212;-67
2022/11/26 13:13:01;;;;;;;0.00;0.00;;;10.30;99.90;;;;;;5053014;28;20173;-67